Time;durP1;ratioP1;P1;durP2;ratioP2;P2;SDS_P1;SDS_P2;PMS_P1;PMS_P2;Temp;Humidity;BMP_temperature;BMP_pressure;BME280_temperature;BME280_humidity;BME280_pressure;Samples;Min_cycle;Max_cycle;Signal;HPM_P1;HPM_P2
2024/01/06 00:02:02;;;;;;;4.20;3.77;;;;;;;6.52;100.00;95425.31;5102967;28;20193;-58
2024/01/06 00:04:29;;;;;;;3.83;3.53;;;;;;;6.56;100.00;95418.81;5102892;28;20243;-57
2024/01/06 00:06:56;;;;;;;3.87;3.57;;;;;;;6.50;100.00;95414.16;5103148;28;20227;-58
2024/01/06 00:09:22;;;;;;;3.40;3.20;;;;;;;6.53;100.00;95416.47;5103375;28;20527;-59
2024/01/06 00:11:49;;;;;;;3.97;3.67;;;;;;;6.49;100.00;95420.38;5102975;28;20202;-57
2024/01/06 00:14:16;;;;;;;3.60;3.30;;;;;;;6.45;100.00;95411.13;5103054;28;20215;-60
2024/01/06 00:16:43;;;;;;;3.67;3.47;;;;;;;6.46;100.00;95418.88;5102729;28;20200;-59
2024/01/06 00:19:10;;;;;;;4.70;4.30;;;;;;;6.45;100.00;95425.09;5102224;28;20205;-58
2024/01/06 00:21:37;;;;;;;4.03;3.70;;;;;;;6.48;100.00;95422.16;5102414;28;20225;-59
2024/01/06 00:24:03;;;;;;;3.90;3.60;;;;;;;6.49;100.00;95426.44;5102143;27;20197;-58
2024/01/06 00:26:30;;;;;;;4.53;4.17;;;;;;;6.49;100.00;95436.94;5103312;27;20211;-60
2024/01/06 00:28:57;;;;;;;5.53;5.13;;;;;;;6.49;100.00;95430.88;5106656;28;20325;-59
2024/01/06 00:31:25;;;;;;;6.43;5.93;;;;;;;6.49;100.00;95436.13;5120272;28;20185;-58
2024/01/06 00:33:53;;;;;;;6.47;5.57;;;;;;;6.55;100.00;95432.09;5118910;28;20232;-59
2024/01/06 00:36:19;;;;;;;6.70;6.20;;;;;;;6.52;100.00;95446.31;5107142;28;20194;-59
2024/01/06 00:38:46;;;;;;;7.27;6.57;;;;;;;6.52;100.00;95435.81;5102266;27;20276;-58
2024/01/06 00:41:13;;;;;;;7.13;6.53;;;;;;;6.55;100.00;95440.81;5100873;28;20217;-58
2024/01/06 00:43:40;;;;;;;6.83;6.23;;;;;;;6.45;100.00;95445.25;5102606;28;20295;-60
2024/01/06 00:46:07;;;;;;;5.63;5.13;;;;;;;6.45;100.00;95440.84;5101757;28;20206;-59
2024/01/06 00:48:34;;;;;;;6.13;5.53;;;;;;;6.44;100.00;95443.63;5101452;28;20220;-58
2024/01/06 00:51:02;;;;;;;7.67;6.93;;;;;;;6.51;100.00;95444.69;5104198;28;20642;-58
2024/01/06 00:53:29;;;;;;;7.23;6.63;;;;;;;6.54;100.00;95446.19;5121730;28;20213;-58
2024/01/06 00:55:55;;;;;;;10.73;9.63;;;;;;;6.51;100.00;95442.06;5121344;28;20228;-60
2024/01/06 00:58:22;;;;;;;10.10;9.03;;;;;;;6.58;100.00;95442.31;5122956;28;20217;-60
2024/01/06 01:00:49;;;;;;;10.17;9.00;;;;;;;6.58;100.00;95444.94;5100853;28;20220;-60
2024/01/06 01:03:16;;;;;;;10.67;9.67;;;;;;;6.63;100.00;95454.00;5100211;28;20661;-57
2024/01/06 01:05:43;;;;;;;9.87;8.93;;;;;;;6.62;100.00;95462.03;5102636;28;20213;-59
2024/01/06 01:08:10;;;;;;;10.10;9.07;;;;;;;6.64;100.00;95460.91;5101919;28;20208;-58
2024/01/06 01:10:37;;;;;;;10.00;9.10;;;;;;;6.65;100.00;95462.56;5100772;28;20198;-57
2024/01/06 01:13:04;;;;;;;10.60;9.50;;;;;;;6.66;100.00;95461.59;5101913;28;20210;-57
2024/01/06 01:15:31;;;;;;;10.00;9.10;;;;;;;6.66;100.00;95463.41;5108547;28;20288;-58
2024/01/06 01:17:57;;;;;;;9.40;8.60;;;;;;;6.67;100.00;95479.00;5111045;28;20221;-59
2024/01/06 01:20:24;;;;;;;9.90;8.90;;;;;;;6.69;100.00;95474.44;5108629;28;20280;-57
2024/01/06 01:22:52;;;;;;;8.60;7.90;;;;;;;6.64;100.00;95479.31;5105742;28;20239;-57
2024/01/06 01:25:20;;;;;;;8.33;7.63;;;;;;;6.61;100.00;95482.22;5101102;28;20205;-58
2024/01/06 01:27:47;;;;;;;7.97;7.27;;;;;;;6.52;100.00;95480.47;5101217;28;20208;-56
2024/01/06 01:30:14;;;;;;;9.23;8.40;;;;;;;6.47;100.00;95496.69;5101091;28;20198;-57
2024/01/06 01:32:40;;;;;;;8.73;7.93;;;;;;;6.49;100.00;95499.16;5100632;28;20644;-57
2024/01/06 01:35:07;;;;;;;8.60;7.80;;;;;;;6.52;100.00;95501.47;5100375;28;20285;-56
2024/01/06 01:37:34;;;;;;;8.30;7.60;;;;;;;6.50;100.00;95500.81;5101658;28;20201;-58
2024/01/06 01:40:01;;;;;;;8.53;7.73;;;;;;;6.47;100.00;95511.59;5100973;27;20223;-56
2024/01/06 01:42:29;;;;;;;8.80;8.00;;;;;;;6.45;100.00;95511.75;5101530;28;20202;-57
2024/01/06 01:44:58;;;;;;;8.33;7.63;;;;;;;6.48;100.00;95508.03;5101440;28;20217;-58
2024/01/06 01:47:24;;;;;;;8.77;7.93;;;;;;;6.47;100.00;95506.34;5102668;28;20225;-57
2024/01/06 01:49:51;;;;;;;7.40;6.80;;;;;;;6.47;100.00;95516.88;5102328;27;20197;-56
2024/01/06 01:52:18;;;;;;;5.50;5.10;;;;;;;6.44;100.00;95517.97;5102508;28;20216;-57
2024/01/06 01:54:46;;;;;;;6.13;5.63;;;;;;;6.45;100.00;95509.13;5101854;28;20189;-57
2024/01/06 01:57:14;;;;;;;6.43;5.93;;;;;;;6.44;100.00;95514.53;5103669;28;20268;-58
2024/01/06 01:59:42;;;;;;;7.13;6.53;;;;;;;6.43;100.00;95515.50;5103218;28;20271;-57
2024/01/06 02:02:09;;;;;;;8.37;7.57;;;;;;;6.49;100.00;95517.53;5100179;28;20225;-57
2024/01/06 02:04:37;;;;;;;8.30;7.50;;;;;;;6.58;100.00;95519.31;5100867;28;20391;-57
2024/01/06 02:07:04;;;;;;;8.00;7.30;;;;;;;6.61;100.00;95511.13;5099408;28;20204;-56
2024/01/06 02:09:31;;;;;;;7.73;6.93;;;;;;;6.64;100.00;95513.44;5100544;28;20198;-58
2024/01/06 02:11:58;;;;;;;6.90;6.30;;;;;;;6.54;100.00;95515.31;5101736;28;20193;-56
2024/01/06 02:14:24;;;;;;;6.27;5.77;;;;;;;6.53;100.00;95516.28;5099972;28;20215;-58
2024/01/06 02:16:52;;;;;;;5.30;4.90;;;;;;;6.52;100.00;95514.59;5100757;28;20220;-56
2024/01/06 02:19:19;;;;;;;4.77;4.37;;;;;;;6.60;100.00;95512.09;5099465;28;20293;-57
2024/01/06 02:21:50;;;;;;;4.70;4.30;;;;;;;6.48;100.00;95521.94;5099979;28;20665;-56
2024/01/06 02:24:16;;;;;;;4.90;4.50;;;;;;;6.41;100.00;95526.13;5101338;28;20223;-57
2024/01/06 02:26:43;;;;;;;4.53;4.23;;;;;;;6.36;100.00;95520.50;5100302;28;20229;-56
2024/01/06 02:29:10;;;;;;;4.23;3.93;;;;;;;6.30;100.00;95536.00;5100009;28;20205;-57
2024/01/06 02:31:37;;;;;;;4.13;3.83;;;;;;;6.29;100.00;95523.84;5101024;28;20201;-57
2024/01/06 02:34:03;;;;;;;4.20;3.70;;;;;;;6.23;100.00;95527.06;5101636;28;20211;-57
2024/01/06 02:36:30;;;;;;;3.63;3.33;;;;;;;6.22;100.00;95536.72;5100795;28;20202;-57
2024/01/06 02:38:58;;;;;;;3.63;3.33;;;;;;;6.21;100.00;95531.59;5101429;28;20194;-58
2024/01/06 02:41:25;;;;;;;3.43;3.23;;;;;;;6.22;100.00;95536.72;5099355;28;20233;-58
2024/01/06 02:43:55;;;;;;;3.60;3.30;;;;;;;6.14;100.00;95538.41;5100367;28;20662;-56
2024/01/06 02:46:22;;;;;;;3.30;3.10;;;;;;;6.11;100.00;95543.94;5100381;28;20288;-57
2024/01/06 02:48:48;;;;;;;3.40;3.20;;;;;;;6.10;100.00;95547.53;5099590;28;20202;-58
2024/01/06 02:51:15;;;;;;;3.17;2.97;;;;;;;6.12;100.00;95545.59;5099258;28;20224;-56
2024/01/06 02:53:41;;;;;;;3.33;3.13;;;;;;;6.13;100.00;95548.06;5104038;28;20644;-57
2024/01/06 02:56:12;;;;;;;3.67;3.37;;;;;;;6.10;100.00;95550.13;5103512;28;20210;-57
2024/01/06 02:58:40;;;;;;;3.53;3.27;;;;;;;6.06;100.00;95551.44;5103639;28;20194;-57
2024/01/06 03:01:06;;;;;;;3.30;3.10;;;;;;;6.09;100.00;95543.25;5101988;28;20680;-57
2024/01/06 03:03:33;;;;;;;3.63;3.37;;;;;;;6.08;100.00;95549.47;5103763;28;20251;-57
2024/01/06 03:05:59;;;;;;;3.70;3.50;;;;;;;6.09;100.00;95546.72;5103522;27;20305;-57
2024/01/06 03:08:26;;;;;;;4.20;3.90;;;;;;;6.05;100.00;95547.13;5104460;28;20201;-57
2024/01/06 03:10:53;;;;;;;4.90;3.57;;;;;;;6.04;100.00;95551.56;5103259;28;20218;-57
2024/01/06 03:13:21;;;;;;;4.17;3.80;;;;;;;6.11;100.00;95547.38;5104429;28;20216;-57
2024/01/06 03:15:47;;;;;;;3.70;3.40;;;;;;;6.12;100.00;95549.06;5102931;28;20229;-57
2024/01/06 03:18:15;;;;;;;4.10;3.80;;;;;;;6.09;100.00;95556.38;5109205;27;20192;-56
2024/01/06 03:20:42;;;;;;;4.17;3.87;;;;;;;6.09;100.00;95559.84;5115042;28;20249;-57
2024/01/06 03:23:09;;;;;;;4.00;3.67;;;;;;;5.99;100.00;95553.75;5118842;28;20269;-56
2024/01/06 03:25:35;;;;;;;3.70;3.40;;;;;;;5.95;100.00;95561.09;5120548;28;20228;-57
2024/01/06 03:28:02;;;;;;;3.37;3.10;;;;;;;5.91;100.00;95557.13;5120342;28;20235;-56
2024/01/06 03:30:30;;;;;;;3.00;2.80;;;;;;;5.92;100.00;95566.63;5106436;28;20296;-57
2024/01/06 03:32:56;;;;;;;2.70;2.50;;;;;;;5.93;100.00;95570.91;5103426;28;20554;-56
2024/01/06 03:35:23;;;;;;;2.90;2.70;;;;;;;5.85;100.00;95568.13;5103561;28;20471;-57
2024/01/06 03:37:49;;;;;;;2.50;2.40;;;;;;;5.81;100.00;95579.84;5102840;28;20589;-57
2024/01/06 03:40:16;;;;;;;2.93;2.57;;;;;;;5.74;100.00;95575.34;5103555;28;20211;-56
2024/01/06 03:42:43;;;;;;;2.33;2.20;;;;;;;5.70;100.00;95574.78;5103191;27;20308;-57
2024/01/06 03:45:10;;;;;;;2.60;2.40;;;;;;;5.64;100.00;95577.94;5102837;28;20305;-57
2024/01/06 03:47:37;;;;;;;2.60;2.40;;;;;;;5.68;100.00;95571.47;5102439;28;20206;-56
2024/01/06 03:50:05;;;;;;;3.60;3.30;;;;;;;5.67;100.00;95576.84;5103602;27;20200;-56
2024/01/06 03:52:32;;;;;;;2.90;2.70;;;;;;;5.68;100.00;95579.31;5103453;28;20202;-57
2024/01/06 03:54:58;;;;;;;2.50;2.40;;;;;;;5.68;100.00;95586.38;5102720;28;20209;-57
2024/01/06 03:57:25;;;;;;;3.00;2.20;;;;;;;5.68;100.00;95579.31;5102854;28;20193;-57
2024/01/06 03:59:51;;;;;;;3.30;2.50;;;;;;;5.65;100.00;95587.47;5107139;28;20201;-63
2024/01/06 04:02:18;;;;;;;2.50;2.40;;;;;;;5.63;100.00;95583.34;5122821;28;20256;-56
2024/01/06 04:04:46;;;;;;;3.10;2.90;;;;;;;5.64;100.00;95590.22;5111673;28;20248;-58
2024/01/06 04:07:14;;;;;;;2.67;2.47;;;;;;;5.63;100.00;95592.03;5107516;28;20209;-57
2024/01/06 04:09:43;;;;;;;2.50;2.30;;;;;;;5.65;100.00;95592.72;5085475;28;20205;-57
2024/01/06 04:12:09;;;;;;;1.90;1.80;;;;;;;5.53;100.00;95596.44;5103222;28;20739;-56
2024/01/06 04:14:36;;;;;;;1.57;1.57;;;;;;;5.59;100.00;95595.06;5102823;28;20245;-57
2024/01/06 04:17:02;;;;;;;1.70;1.60;;;;;;;5.53;100.00;95599.06;5102730;28;20326;-56
2024/01/06 04:19:29;;;;;;;1.60;1.50;;;;;;;5.53;100.00;95599.06;5102437;28;20289;-56
2024/01/06 04:22:01;;;;;;;1.60;1.57;;;;;;;5.51;100.00;95593.13;5102181;28;20229;-55
2024/01/06 04:24:28;;;;;;;1.80;1.70;;;;;;;5.53;100.00;95603.50;5102195;28;20203;-56
2024/01/06 04:26:54;;;;;;;1.43;1.40;;;;;;;5.50;100.00;95604.59;5102481;28;20205;-57
2024/01/06 04:29:21;;;;;;;1.87;1.70;;;;;;;5.49;100.00;95608.19;5101500;27;20638;-56
2024/01/06 04:31:48;;;;;;;2.23;1.70;;;;;;;5.48;100.00;95609.16;5102698;28;20297;-57
2024/01/06 04:34:15;;;;;;;1.50;1.40;;;;;;;5.46;100.00;95608.44;5102353;28;20201;-57
2024/01/06 04:36:41;;;;;;;1.67;1.50;;;;;;;5.48;100.00;95611.78;5101262;28;20530;-57
2024/01/06 04:39:09;;;;;;;1.80;1.50;;;;;;;5.53;100.00;95614.00;5102347;28;20193;-57
2024/01/06 04:41:36;;;;;;;1.77;1.67;;;;;;;5.51;100.00;95617.56;5102072;28;20715;-57
2024/01/06 04:44:03;;;;;;;1.80;1.70;;;;;;;5.50;100.00;95620.31;5102126;28;20205;-57
2024/01/06 04:46:30;;;;;;;1.70;1.60;;;;;;;5.45;100.00;95612.03;5101619;28;20639;-57
2024/01/06 04:48:57;;;;;;;2.10;2.00;;;;;;;5.49;100.00;95626.53;5100655;28;20201;-57
2024/01/06 04:51:23;;;;;;;1.67;1.57;;;;;;;5.53;100.00;95620.03;5101866;27;20198;-57
2024/01/06 04:53:50;;;;;;;2.03;1.67;;;;;;;5.46;100.00;95629.41;5101795;28;20206;-57
2024/01/06 04:56:18;;;;;;;1.70;1.60;;;;;;;5.42;100.00;95625.44;5102061;28;20579;-56
2024/01/06 04:58:45;;;;;;;1.87;1.73;;;;;;;5.45;100.00;95620.75;5100828;28;20221;-57
2024/01/06 05:01:11;;;;;;;1.73;1.40;;;;;;;5.43;100.00;95629.69;5100963;27;20221;-56
2024/01/06 05:03:38;;;;;;;1.73;1.50;;;;;;;5.39;100.00;95628.31;5101299;28;20261;-57
2024/01/06 05:06:05;;;;;;;1.80;1.70;;;;;;;5.40;100.00;95632.59;5101623;28;20231;-57
2024/01/06 05:08:31;;;;;;;1.83;1.73;;;;;;;5.42;100.00;95633.28;5102542;28;20197;-58
2024/01/06 05:10:58;;;;;;;1.93;1.83;;;;;;;5.39;100.00;95628.31;5102030;27;20213;-57
2024/01/06 05:13:26;;;;;;;2.47;1.83;;;;;;;5.36;100.00;95631.19;5102823;28;20301;-57
2024/01/06 05:15:53;;;;;;;1.40;1.37;;;;;;;5.35;100.00;95634.81;5101283;27;20209;-57
2024/01/06 05:18:19;;;;;;;1.70;1.60;;;;;;;5.35;100.00;95632.19;5101793;28;20500;-57
2024/01/06 05:20:46;;;;;;;1.57;1.47;;;;;;;5.36;100.00;95634.66;5101135;28;20216;-57
2024/01/06 05:23:13;;;;;;;1.43;1.40;;;;;;;5.46;100.00;95639.91;5100348;28;20217;-57
2024/01/06 05:25:39;;;;;;;1.40;1.40;;;;;;;5.53;100.00;95634.97;5114322;28;20213;-57
2024/01/06 05:28:06;;;;;;;1.63;1.47;;;;;;;5.53;100.00;95641.00;5120812;28;20208;-56
2024/01/06 05:30:34;;;;;;;1.80;1.57;;;;;;;5.45;100.00;95633.03;5114717;28;20661;-56
2024/01/06 05:33:02;;;;;;;1.60;1.50;;;;;;;5.42;100.00;95635.91;5100767;28;20638;-56
2024/01/06 05:35:28;;;;;;;1.60;1.50;;;;;;;5.39;100.00;95641.41;5100795;28;20197;-56
2024/01/06 05:37:55;;;;;;;1.50;1.40;;;;;;;5.36;100.00;95639.06;5101122;27;20297;-57
2024/01/06 05:40:24;;;;;;;2.90;1.50;;;;;;;5.29;100.00;95638.78;5101077;28;20265;-57
2024/01/06 05:42:52;;;;;;;1.50;1.40;;;;;;;5.31;100.00;95642.13;5099721;28;20220;-57
2024/01/06 05:45:19;;;;;;;1.70;1.60;;;;;;;5.26;100.00;95638.22;5101141;27;20328;-57
2024/01/06 05:47:47;;;;;;;1.37;1.27;;;;;;;5.16;100.00;95642.63;5118682;28;20276;-57
2024/01/06 05:50:16;;;;;;;1.03;1.00;;;;;;;5.11;100.00;95647.41;5120210;28;20196;-57
2024/01/06 05:52:42;;;;;;;1.67;1.07;;;;;;;5.18;100.00;95653.78;5121890;28;20186;-57
2024/01/06 05:55:09;;;;;;;2.30;1.17;;;;;;;5.17;100.00;95646.91;5107233;28;20197;-59
2024/01/06 05:57:36;;;;;;;2.00;1.10;;;;;;;5.09;100.00;95657.22;5101399;28;20213;-57
2024/01/06 06:00:03;;;;;;;0.93;0.80;;;;;;;5.07;100.00;95659.13;5100148;28;20543;-56
2024/01/06 06:02:30;;;;;;;1.30;0.93;;;;;;;5.17;100.00;95660.00;5082465;28;20320;-57
2024/01/06 06:04:58;;;;;;;1.33;1.20;;;;;;;5.10;100.00;95664.13;5110585;28;20213;-57
2024/01/06 06:07:24;;;;;;;1.00;1.00;;;;;;;5.13;100.00;95663.84;5109408;28;20204;-57
2024/01/06 06:09:55;;;;;;;1.33;1.20;;;;;;;5.07;100.00;95665.19;5108753;28;20336;-56
2024/01/06 06:12:21;;;;;;;2.07;1.93;;;;;;;5.04;100.00;95665.47;5105518;28;20284;-57
2024/01/06 06:14:48;;;;;;;1.40;1.33;;;;;;;5.11;100.00;95671.00;5103522;28;20293;-56
2024/01/06 06:17:14;;;;;;;1.73;1.63;;;;;;;5.01;100.00;95676.22;5105714;28;20289;-56
2024/01/06 06:19:41;;;;;;;1.30;1.20;;;;;;;4.94;100.00;95675.09;5102038;28;20591;-58
2024/01/06 06:22:09;;;;;;;0.90;0.90;;;;;;;5.01;100.00;95677.06;5101836;28;20222;-57
2024/01/06 06:24:35;;;;;;;1.17;1.07;;;;;;;5.07;100.00;95680.09;5101827;28;20536;-58
2024/01/06 06:27:02;;;;;;;0.93;0.90;;;;;;;4.95;100.00;95674.97;5101108;28;20201;-56
2024/01/06 06:29:29;;;;;;;1.20;1.10;;;;;;;5.10;100.00;95685.09;5101782;28;20215;-57
2024/01/06 06:31:56;;;;;;;1.33;1.23;;;;;;;4.97;100.00;95680.91;5102297;28;20197;-57
2024/01/06 06:34:22;;;;;;;1.17;1.00;;;;;;;5.04;100.00;95681.19;5102063;28;20549;-56
2024/01/06 06:36:51;;;;;;;1.07;1.07;;;;;;;5.06;100.00;95681.06;5101945;28;20543;-57
2024/01/06 06:39:19;;;;;;;1.27;1.13;;;;;;;5.07;100.00;95682.72;5101924;28;20216;-58
2024/01/06 06:41:45;;;;;;;1.47;1.20;;;;;;;5.06;100.00;95688.94;5102545;28;20308;-58
2024/01/06 06:44:12;;;;;;;1.47;1.37;;;;;;;5.10;100.00;95685.09;5102186;28;20285;-57
2024/01/06 06:46:39;;;;;;;1.47;0.90;;;;;;;5.15;100.00;95694.19;5102123;28;20544;-55
2024/01/06 06:49:05;;;;;;;1.30;1.13;;;;;;;5.13;100.00;95695.31;5101752;28;20224;-57
2024/01/06 06:51:32;;;;;;;1.63;1.27;;;;;;;5.11;100.00;95698.03;5102321;28;20197;-57
2024/01/06 06:53:59;;;;;;;1.20;1.10;;;;;;;5.03;100.00;95701.31;5101968;28;20205;-57
2024/01/06 06:56:28;;;;;;;1.10;1.10;;;;;;;5.14;100.00;95712.66;5101515;28;20202;-57
2024/01/06 06:58:55;;;;;;;0.93;0.90;;;;;;;5.18;100.00;95708.81;5101065;28;20215;-57
2024/01/06 07:01:23;;;;;;;1.23;1.13;;;;;;;5.18;100.00;95708.81;5100646;28;20207;-58
2024/01/06 07:03:49;;;;;;;1.63;1.10;;;;;;;5.17;100.00;95701.94;5101158;28;20232;-56
2024/01/06 07:06:16;;;;;;;1.07;1.07;;;;;;;5.19;100.00;95710.47;5102105;28;20198;-57
2024/01/06 07:08:42;;;;;;;1.30;1.27;;;;;;;5.18;100.00;95700.94;5101785;28;20221;-55
2024/01/06 07:11:11;;;;;;;1.07;1.07;;;;;;;5.26;100.00;95707.19;5101048;28;20629;-58
2024/01/06 07:13:39;;;;;;;1.00;1.00;;;;;;;5.23;100.00;95709.25;5101524;28;20596;-55
2024/01/06 07:16:06;;;;;;;1.53;1.17;;;;;;;5.16;100.00;95705.50;5101756;28;20266;-57
2024/01/06 07:18:33;;;;;;;1.50;1.40;;;;;;;5.10;100.00;95706.06;5102203;28;20212;-57
2024/01/06 07:21:00;;;;;;;1.40;1.40;;;;;;;5.13;100.00;95706.63;5101340;28;20638;-57
2024/01/06 07:23:27;;;;;;;2.57;1.77;;;;;;;5.14;100.00;95707.41;5100979;28;21049;-57
2024/01/06 07:25:53;;;;;;;2.03;1.93;;;;;;;5.11;100.00;95707.69;5101699;28;20534;-56
2024/01/06 07:28:21;;;;;;;2.20;1.97;;;;;;;5.09;100.00;95713.09;5100962;28;20639;-57
2024/01/06 07:30:49;;;;;;;1.80;1.70;;;;;;;5.16;100.00;95708.13;5101322;28;20206;-57
2024/01/06 07:33:15;;;;;;;1.50;1.40;;;;;;;5.10;100.00;95717.34;5101456;28;20202;-57
2024/01/06 07:35:43;;;;;;;1.57;1.37;;;;;;;5.12;100.00;95720.66;5101182;28;20202;-57
2024/01/06 07:38:10;;;;;;;1.20;1.10;;;;;;;5.11;100.00;95723.41;5100911;28;20194;-57
2024/01/06 07:40:36;;;;;;;1.13;1.03;;;;;;;5.14;100.00;95733.63;5104807;28;20253;-57
2024/01/06 07:43:04;;;;;;;1.17;1.07;;;;;;;5.07;100.00;95737.72;5104914;28;20221;-57
2024/01/06 07:45:31;;;;;;;1.50;1.23;;;;;;;5.00;100.00;95737.44;5105011;28;20216;-56
2024/01/06 07:47:59;;;;;;;1.30;1.30;;;;;;;4.93;100.00;95741.53;5104352;28;20205;-56
2024/01/06 07:50:26;;;;;;;1.43;1.33;;;;;;;4.96;100.00;95742.09;5105164;28;20201;-55
2024/01/06 07:52:55;;;;;;;1.10;1.10;;;;;;;4.96;100.00;95741.28;5104907;28;20332;-56
2024/01/06 07:55:22;;;;;;;1.00;1.00;;;;;;;4.94;100.00;95741.41;5104716;28;20198;-57
2024/01/06 07:57:49;;;;;;;1.10;1.10;;;;;;;4.99;100.00;95749.69;5104326;28;20529;-57
2024/01/06 08:00:16;;;;;;;1.60;1.50;;;;;;;4.91;100.00;95752.16;5104507;28;20298;-57
2024/01/06 08:02:42;;;;;;;1.60;1.50;;;;;;;4.99;100.00;95751.50;5103890;28;20257;-56
2024/01/06 08:05:11;;;;;;;1.30;1.20;;;;;;;4.98;100.00;95749.84;5102477;28;20212;-57
2024/01/06 08:07:37;;;;;;;1.10;1.10;;;;;;;4.96;100.00;95749.97;5101350;28;20553;-56
2024/01/06 08:10:05;;;;;;;1.80;1.23;;;;;;;4.91;100.00;95753.94;5104155;28;20220;-57
2024/01/06 08:12:32;;;;;;;1.50;1.40;;;;;;;5.04;100.00;95751.94;5104651;28;20202;-56
2024/01/06 08:14:58;;;;;;;1.67;1.30;;;;;;;5.09;100.00;95751.56;5106888;28;20197;-57
2024/01/06 08:17:25;;;;;;;0.90;0.90;;;;;;;5.12;100.00;95752.13;5108601;28;20268;-57
2024/01/06 08:19:52;;;;;;;1.20;1.10;;;;;;;5.08;100.00;95750.72;5106667;28;20232;-57
2024/01/06 08:22:20;;;;;;;1.40;1.30;;;;;;;5.00;100.00;95753.97;5104433;28;20225;-56
2024/01/06 08:24:47;;;;;;;1.70;1.70;;;;;;;4.93;100.00;95752.84;5104040;28;20202;-57
2024/01/06 08:27:13;;;;;;;1.40;1.30;;;;;;;4.91;100.00;95757.41;5104457;28;20194;-57
2024/01/06 08:29:40;;;;;;;2.10;1.70;;;;;;;4.99;100.00;95754.13;5104271;28;20210;-56
2024/01/06 08:32:07;;;;;;;1.43;1.00;;;;;;;4.91;100.00;95753.94;5104240;28;20296;-56
2024/01/06 08:34:34;;;;;;;1.23;1.23;;;;;;;4.93;100.00;95762.50;5103745;28;20198;-56
2024/01/06 08:37:03;;;;;;;1.17;1.10;;;;;;;4.99;100.00;95762.00;5103529;28;20209;-57
2024/01/06 08:39:31;;;;;;;1.23;1.20;;;;;;;4.98;100.00;95765.56;5103651;28;20232;-57
2024/01/06 08:41:58;;;;;;;1.10;1.10;;;;;;;5.05;100.00;95773.72;5104474;28;20201;-57
2024/01/06 08:44:25;;;;;;;1.30;1.30;;;;;;;5.06;100.00;95778.00;5103890;28;20201;-57
2024/01/06 08:46:51;;;;;;;1.47;1.40;;;;;;;5.01;100.00;95781.03;5103392;28;20287;-57
2024/01/06 08:49:18;;;;;;;1.00;1.00;;;;;;;5.01;100.00;95781.84;5102899;28;20197;-57
2024/01/06 08:51:45;;;;;;;2.30;2.10;;;;;;;5.01;100.00;95783.63;5103439;28;20205;-56
2024/01/06 08:54:11;;;;;;;1.60;1.53;;;;;;;5.18;100.00;95782.19;5103904;28;20201;-57
2024/01/06 08:56:40;;;;;;;1.57;1.53;;;;;;;5.18;100.00;95788.28;5102999;28;20628;-57
2024/01/06 08:59:06;;;;;;;1.80;1.70;;;;;;;5.14;100.00;95786.88;5102949;28;20216;-56
2024/01/06 09:01:35;;;;;;;1.80;1.70;;;;;;;5.08;100.00;95789.19;5103684;28;20251;-56
2024/01/06 09:04:02;;;;;;;1.90;1.80;;;;;;;5.22;100.00;95788.84;5109255;27;20240;-57
2024/01/06 09:06:28;;;;;;;2.63;2.43;;;;;;;5.28;100.00;95788.34;5117071;27;20200;-57
2024/01/06 09:08:55;;;;;;;3.10;2.90;;;;;;;5.29;100.00;95796.06;5112251;27;20618;-57
2024/01/06 09:11:21;;;;;;;2.53;2.43;;;;;;;5.32;100.00;95789.69;5100392;27;20622;-57
2024/01/06 09:13:52;;;;;;;2.27;2.10;;;;;;;5.38;100.00;95799.69;5099616;28;20197;-57
2024/01/06 09:16:19;;;;;;;2.70;2.50;;;;;;;5.43;100.00;95793.06;5100464;28;20208;-56
2024/01/06 09:18:45;;;;;;;2.50;2.40;;;;;;;5.45;100.00;95796.41;5101133;28;20617;-59
2024/01/06 09:21:13;;;;;;;2.30;2.20;;;;;;;5.47;100.00;95793.63;5100674;27;20530;-56
2024/01/06 09:23:40;;;;;;;2.33;2.23;;;;;;;5.47;100.00;95793.63;5100650;28;20223;-56
2024/01/06 09:26:06;;;;;;;2.37;2.27;;;;;;;5.46;100.00;95797.22;5101194;28;20525;-57
2024/01/06 09:28:33;;;;;;;2.53;2.40;;;;;;;5.50;100.00;95809.09;5099533;28;20232;-56
2024/01/06 09:31:01;;;;;;;2.00;1.90;;;;;;;5.50;100.00;95807.31;5100817;27;20573;-57
2024/01/06 09:33:27;;;;;;;1.67;1.57;;;;;;;5.46;100.00;95805.91;5100342;28;20202;-57
2024/01/06 09:35:54;;;;;;;2.00;1.90;;;;;;;5.56;100.00;95805.97;5099641;28;20192;-56
2024/01/06 09:38:21;;;;;;;1.70;1.70;;;;;;;5.53;100.00;95802.78;5100217;28;20209;-57
2024/01/06 09:40:48;;;;;;;2.13;2.03;;;;;;;5.46;100.00;95805.91;5100637;28;20206;-56
2024/01/06 09:43:15;;;;;;;2.20;2.10;;;;;;;5.43;100.00;95802.72;5101954;28;20239;-56
2024/01/06 09:45:41;;;;;;;1.97;1.87;;;;;;;5.49;100.00;95805.63;5100467;28;20258;-56
2024/01/06 09:48:12;;;;;;;1.90;1.80;;;;;;;5.41;100.00;95810.75;5101712;28;20198;-57
2024/01/06 09:50:41;;;;;;;3.47;3.27;;;;;;;5.42;100.00;95808.94;5100481;28;20209;-57
2024/01/06 09:53:10;;;;;;;2.80;2.70;;;;;;;5.43;100.00;95808.81;5101652;28;20537;-57
2024/01/06 09:55:37;;;;;;;2.07;1.97;;;;;;;5.46;100.00;95812.94;5098273;28;20206;-57
2024/01/06 09:58:04;;;;;;;2.70;2.50;;;;;;;5.48;100.00;95813.66;5099850;28;20201;-56
2024/01/06 10:00:31;;;;;;;2.60;2.40;;;;;;;5.48;100.00;95816.28;5100755;28;20221;-56
2024/01/06 10:02:57;;;;;;;2.50;2.30;;;;;;;5.53;100.00;95808.81;5100065;28;20263;-57
2024/01/06 10:05:25;;;;;;;2.70;2.50;;;;;;;5.60;100.00;95809.97;5099098;28;20528;-55
2024/01/06 10:07:53;;;;;;;2.47;2.30;;;;;;;5.58;100.00;95816.31;5100692;28;20201;-57
2024/01/06 10:10:19;;;;;;;2.57;2.37;;;;;;;5.39;100.00;95811.81;5109458;27;20211;-57
2024/01/06 10:12:46;;;;;;;2.80;2.60;;;;;;;5.41;100.00;95807.28;5103627;28;20637;-56
2024/01/06 10:15:13;;;;;;;2.90;2.70;;;;;;;5.42;100.00;95806.34;5107040;28;20263;-57
2024/01/06 10:17:40;;;;;;;2.60;2.40;;;;;;;5.35;100.00;95802.56;5109792;28;20212;-57
2024/01/06 10:20:09;;;;;;;2.53;2.43;;;;;;;5.43;100.00;95802.72;5112294;28;20255;-57
2024/01/06 10:22:38;;;;;;;5.67;5.17;;;;;;;5.37;100.00;95798.03;5111727;28;20205;-57
2024/01/06 10:25:06;;;;;;;2.57;2.47;;;;;;;5.49;100.00;95805.63;5110189;28;20204;-57
2024/01/06 10:27:35;;;;;;;2.27;2.17;;;;;;;5.56;100.00;95805.97;5106614;28;20678;-56
2024/01/06 10:30:01;;;;;;;2.30;2.20;;;;;;;5.59;100.00;95802.25;5104776;28;20537;-57
2024/01/06 10:32:31;;;;;;;3.20;2.90;;;;;;;5.55;100.00;95799.06;5101011;28;20615;-56
2024/01/06 10:34:58;;;;;;;2.50;2.40;;;;;;;5.49;100.00;95802.22;5101622;28;20297;-56
2024/01/06 10:37:25;;;;;;;2.50;2.30;;;;;;;5.43;100.00;95792.25;5102037;28;20209;-55
2024/01/06 10:40:11;;;;;;;2.90;2.70;;;;;;;5.44;100.00;95804.38;5101126;28;20197;-57
2024/01/06 10:42:39;;;;;;;2.50;2.30;;;;;;;5.42;100.00;95787.97;5103394;28;20209;-57
2024/01/06 10:45:09;;;;;;;3.23;2.93;;;;;;;5.38;100.00;95789.19;5105619;28;20211;-56
2024/01/06 10:47:36;;;;;;;2.83;2.10;;;;;;;5.37;100.00;95792.78;5103953;28;20680;-57
2024/01/06 10:50:03;;;;;;;2.50;2.40;;;;;;;5.37;100.00;95787.53;5106372;28;20288;-57
2024/01/06 10:52:30;;;;;;;2.83;2.10;;;;;;;5.36;100.00;95791.09;5105031;28;20611;-55
2024/01/06 10:54:57;;;;;;;2.20;2.10;;;;;;;5.35;100.00;95785.03;5103143;28;20305;-57
2024/01/06 10:57:25;;;;;;;2.63;2.43;;;;;;;5.36;100.00;95783.25;5105680;28;20542;-56
2024/01/06 10:59:52;;;;;;;2.40;2.23;;;;;;;5.46;100.00;95781.47;5104724;28;20873;-57
2024/01/06 11:02:19;;;;;;;2.50;2.30;;;;;;;5.41;100.00;95781.91;5106951;28;20202;-57
2024/01/06 11:04:47;;;;;;;2.60;2.50;;;;;;;5.40;100.00;95787.25;5101861;28;20236;-56
2024/01/06 11:07:14;;;;;;;3.37;3.07;;;;;;;5.42;100.00;95780.91;5102409;28;20209;-57
2024/01/06 11:09:45;;;;;;;2.73;2.53;;;;;;;5.44;100.00;95780.78;5102188;28;20215;-57
2024/01/06 11:12:13;;;;;;;2.43;2.23;;;;;;;5.41;100.00;95781.06;5102385;28;20194;-57
2024/01/06 11:14:41;;;;;;;2.63;2.10;;;;;;;5.37;100.00;95782.28;5105736;28;20190;-57
2024/01/06 11:17:08;;;;;;;2.17;2.07;;;;;;;5.44;100.00;95783.41;5105989;28;20529;-56
2024/01/06 11:19:54;;;;;;;3.00;2.80;;;;;;;5.41;100.00;95787.16;5105861;28;20525;-57
2024/01/06 11:22:22;;;;;;;2.40;2.30;;;;;;;5.45;100.00;95787.72;5103093;27;20196;-56
2024/01/06 11:24:50;;;;;;;2.87;2.40;;;;;;;5.46;100.00;95779.69;5104541;28;20245;-57
2024/01/06 11:27:22;;;;;;;3.27;3.07;;;;;;;5.44;100.00;95776.38;5104207;28;20210;-57
2024/01/06 11:29:52;;;;;;;3.37;2.80;;;;;;;5.49;100.00;95781.25;5103716;28;20713;-57
2024/01/06 11:32:29;;;;;;;2.63;2.40;;;;;;;5.49;100.00;95782.03;5104544;28;20205;-57
2024/01/06 11:34:58;;;;;;;3.73;2.30;;;;;;;5.60;100.00;95777.69;5104537;28;20199;-56